Time;durP1;ratioP1;P1;durP2;ratioP2;P2;SDS_P1;SDS_P2;PMS_P1;PMS_P2;Temp;Humidity;BMP_temperature;BMP_pressure;BME280_temperature;BME280_humidity;BME280_pressure;Samples;Min_cycle;Max_cycle;Signal;HPM_P1;HPM_P2
2020/12/20 00:01:44;;;;;;;40.65;27.85;;;;;;;6.02;76.13;101889.97;5047962;28;20037;-73
2020/12/20 00:04:11;;;;;;;39.10;25.30;;;;;;;6.06;76.72;101894.59;5049162;28;20040;-75
2020/12/20 00:06:41;;;;;;;42.45;26.83;;;;;;;6.01;76.59;101891.66;5047859;28;20102;-75
2020/12/20 00:09:18;;;;;;;38.88;25.90;;;;;;;6.05;76.28;101891.13;5061244;28;20033;-75
2020/12/20 00:11:46;;;;;;;40.90;26.73;;;;;;;6.10;76.30;101873.53;5051002;28;20032;-76
2020/12/20 00:14:28;;;;;;;37.60;24.98;;;;;;;6.18;75.61;101895.56;5060452;28;20503;-76
2020/12/20 00:16:59;;;;;;;40.67;25.00;;;;;;;6.19;75.48;101889.63;5061566;28;20058;-74
2020/12/20 00:19:25;;;;;;;41.20;25.55;;;;;;;6.17;75.44;101880.94;5058782;28;20032;-76
2020/12/20 00:21:58;;;;;;;40.25;25.77;;;;;;;6.23;75.67;101876.28;5067830;28;20531;-75
2020/12/20 00:24:24;;;;;;;42.10;26.17;;;;;;;6.22;75.52;101882.19;5067959;28;20040;-78
2020/12/20 00:26:50;;;;;;;37.78;25.55;;;;;;;6.05;75.68;101885.09;5062000;28;20193;-73
2020/12/20 00:29:15;;;;;;;38.35;24.98;;;;;;;5.79;77.13;101894.16;5054359;28;20482;-75
2020/12/20 00:31:41;;;;;;;38.60;24.92;;;;;;;5.72;78.34;101890.22;5054606;28;20052;-75
2020/12/20 00:34:07;;;;;;;44.03;26.85;;;;;;;5.37;80.08;101885.75;5063368;28;20020;-77
2020/12/20 00:36:33;;;;;;;39.70;24.90;;;;;;;5.33;80.58;101884.59;5070266;28;20024;-75
2020/12/20 00:38:58;;;;;;;45.75;30.85;;;;;;;5.33;80.88;101879.47;5052705;28;20041;-75
2020/12/20 00:41:24;;;;;;;41.28;26.60;;;;;;;5.29;81.02;101891.91;5054974;28;20036;-77
2020/12/20 00:43:53;;;;;;;40.92;25.77;;;;;;;5.08;82.26;101884.25;5033963;28;20021;-77
2020/12/20 00:46:18;;;;;;;42.38;27.98;;;;;;;5.04;82.20;101881.34;5053001;28;20027;-77
2020/12/20 00:48:43;;;;;;;42.58;28.77;;;;;;;5.11;81.68;101891.28;5039298;28;20025;-73
2020/12/20 00:51:09;;;;;;;45.65;32.80;;;;;;;5.22;81.20;101887.03;5054633;28;20036;-75
2020/12/20 00:53:38;;;;;;;44.78;25.95;;;;;;;5.18;81.04;101857.72;5056074;28;20037;-73
2020/12/20 00:56:08;;;;;;;40.33;25.42;;;;;;;5.39;80.40;101873.06;5060542;28;20092;-76
2020/12/20 00:58:33;;;;;;;43.35;27.02;;;;;;;5.43;80.27;101883.69;5057595;28;20112;-77
2020/12/20 01:01:03;;;;;;;43.05;26.10;;;;;;;5.44;79.86;101871.75;5066871;28;20037;-76
2020/12/20 01:03:28;;;;;;;41.92;27.30;;;;;;;5.31;79.65;101840.03;5046904;28;20115;-75
2020/12/20 01:05:54;;;;;;;39.97;26.08;;;;;;;5.63;78.92;101871.56;5067271;28;20463;-76
2020/12/20 01:08:20;;;;;;;39.95;24.80;;;;;;;5.75;78.72;101869.06;5054314;28;20106;-75
2020/12/20 01:10:45;;;;;;;39.92;24.55;;;;;;;5.51;77.52;101864.69;5055541;28;20583;-76
2020/12/20 01:13:11;;;;;;;39.78;24.10;;;;;;;5.17;79.49;101866.19;5073756;28;20020;-73
2020/12/20 01:15:37;;;;;;;39.10;25.25;;;;;;;5.33;79.56;101869.22;5055418;28;20051;-74
2020/12/20 01:18:02;;;;;;;39.22;24.52;;;;;;;5.17;79.53;101872.22;5073590;28;20035;-77
2020/12/20 01:20:28;;;;;;;38.55;24.42;;;;;;;5.31;79.21;101873.31;5073130;28;20154;-76
2020/12/20 01:22:53;;;;;;;38.75;26.58;;;;;;;5.41;78.62;101871.50;5074520;28;20036;-76
2020/12/20 01:25:19;;;;;;;38.97;24.75;;;;;;;5.33;78.90;101838.50;5073365;28;20093;-76
2020/12/20 01:27:44;;;;;;;39.13;24.40;;;;;;;5.54;78.06;101840.97;5073581;28;20453;-75
2020/12/20 01:30:10;;;;;;;38.78;25.35;;;;;;;5.58;78.03;101834.44;5066424;28;20043;-75
2020/12/20 01:32:35;;;;;;;38.42;24.60;;;;;;;5.72;77.14;101866.25;5053383;28;20031;-73
2020/12/20 01:35:01;;;;;;;39.78;25.70;;;;;;;5.70;77.52;101849.88;5056344;28;20506;-74
2020/12/20 01:37:26;;;;;;;43.17;28.48;;;;;;;5.57;77.90;101853.13;5066541;28;20497;-78
2020/12/20 01:39:52;;;;;;;41.47;26.52;;;;;;;5.66;77.02;101857.31;5054434;28;20029;-78
2020/12/20 01:42:17;;;;;;;40.67;26.05;;;;;;;5.55;77.24;101832.53;5054263;28;20032;-78
2020/12/20 01:44:43;;;;;;;37.28;25.02;;;;;;;5.73;77.23;101861.28;5056051;28;20035;-80
2020/12/20 01:47:09;;;;;;;43.13;26.58;;;;;;;5.59;77.33;101829.41;5056078;28;20036;-80
2020/12/20 01:49:35;;;;;;;38.83;26.23;;;;;;;5.73;77.28;101852.69;5055497;28;20078;-79
2020/12/20 01:52:01;;;;;;;42.20;27.70;;;;;;;5.66;77.32;101854.75;5055360;28;20029;-78
2020/12/20 01:54:27;;;;;;;38.42;26.15;;;;;;;5.63;77.68;101849.41;5061180;28;20486;-77
2020/12/20 01:56:53;;;;;;;45.17;26.85;;;;;;;5.49;77.61;101840.59;5053265;28;20031;-81
2020/12/20 01:59:18;;;;;;;43.92;27.45;;;;;;;5.45;77.85;101863.31;5055426;28;20033;-82
2020/12/20 02:01:44;;;;;;;43.85;26.15;;;;;;;5.44;78.20;101859.81;5037888;28;20451;-81
2020/12/20 02:04:10;;;;;;;49.05;28.27;;;;;;;5.64;77.77;101860.53;5037021;28;20036;-77
2020/12/20 02:06:38;;;;;;;44.33;28.48;;;;;;;5.77;77.57;101862.38;5073031;28;20049;-83
2020/12/20 02:09:03;;;;;;;43.72;27.25;;;;;;;5.82;77.02;101861.09;5073100;28;20118;-77
2020/12/20 02:11:29;;;;;;;40.63;26.48;;;;;;;5.92;76.08;101855.91;5052202;28;20033;-81
2020/12/20 02:13:54;;;;;;;43.92;27.60;;;;;;;5.90;75.74;101841.19;5027092;28;20064;-79
2020/12/20 02:16:21;;;;;;;43.30;28.05;;;;;;;5.96;75.66;101859.63;5014125;28;20689;-77
2020/12/20 02:18:48;;;;;;;43.80;29.13;;;;;;;5.92;75.72;101855.91;5031167;28;20084;-75
2020/12/20 02:21:18;;;;;;;44.40;31.08;;;;;;;5.89;76.03;101857.34;5030921;28;20049;-75
2020/12/20 02:23:48;;;;;;;42.17;26.30;;;;;;;5.27;76.65;101812.41;5030841;28;20163;-72
2020/12/20 02:26:19;;;;;;;48.83;28.10;;;;;;;5.13;78.79;101854.78;5030802;28;20041;-76
2020/12/20 02:28:48;;;;;;;45.80;29.63;;;;;;;5.00;79.46;101855.47;5030496;28;20034;-76
2020/12/20 02:31:14;;;;;;;47.40;30.20;;;;;;;5.16;79.24;101859.28;5030521;28;20095;-74
2020/12/20 02:33:39;;;;;;;47.67;28.95;;;;;;;5.17;79.21;101855.94;5030565;28;20492;-78
2020/12/20 02:36:05;;;;;;;52.75;29.90;;;;;;;5.14;79.50;101845.47;5023070;28;20025;-76
2020/12/20 02:38:30;;;;;;;53.03;31.80;;;;;;;5.07;79.99;101843.16;5030352;28;20053;-73
2020/12/20 02:40:56;;;;;;;52.53;30.98;;;;;;;5.13;79.90;101849.66;5030444;28;20116;-75
2020/12/20 02:43:22;;;;;;;54.22;31.67;;;;;;;5.08;80.01;101844.97;5030249;28;20041;-76
2020/12/20 02:45:47;;;;;;;52.50;31.88;;;;;;;4.95;80.37;101822.59;5067524;28;20044;-74
2020/12/20 02:48:13;;;;;;;58.58;36.33;;;;;;;5.17;79.60;101848.25;5072888;28;20051;-74
2020/12/20 02:50:39;;;;;;;83.18;46.05;;;;;;;5.10;79.39;101846.88;5072606;28;20035;-71
2020/12/20 02:53:04;;;;;;;65.22;36.10;;;;;;;5.11;79.26;101855.44;5072412;28;20028;-76
2020/12/20 02:55:30;;;;;;;65.88;33.58;;;;;;;5.15;78.09;101852.38;5072892;28;20130;-75
2020/12/20 02:57:55;;;;;;;68.63;37.25;;;;;;;5.13;77.91;101851.34;5071834;28;20108;-75
2020/12/20 03:00:21;;;;;;;61.70;30.95;;;;;;;5.19;78.24;101846.72;5072329;28;20052;-74
2020/12/20 03:02:48;;;;;;;59.40;32.28;;;;;;;5.17;78.40;101843.13;5042076;28;20075;-78
2020/12/20 03:05:13;;;;;;;59.88;30.98;;;;;;;5.15;78.64;101843.03;5053362;28;20028;-77
2020/12/20 03:07:39;;;;;;;60.30;32.85;;;;;;;5.13;79.08;101844.56;5039409;28;20029;-77
2020/12/20 03:10:05;;;;;;;63.25;35.35;;;;;;;5.27;78.27;101844.78;5053349;28;20157;-77
2020/12/20 03:12:31;;;;;;;62.20;33.65;;;;;;;5.32;78.01;101825.56;5062754;28;20033;-76
2020/12/20 03:14:57;;;;;;;67.35;35.83;;;;;;;5.51;77.75;101843.31;5048921;28;20094;-75
2020/12/20 03:17:22;;;;;;;69.82;37.78;;;;;;;5.53;77.36;101846.84;5063821;28;20035;-75
2020/12/20 03:19:48;;;;;;;71.55;38.05;;;;;;;5.72;76.87;101848.31;5072076;28;20024;-77
2020/12/20 03:22:14;;;;;;;59.40;32.95;;;;;;;5.70;76.68;101850.78;5072242;28;20094;-73
2020/12/20 03:24:40;;;;;;;56.60;31.10;;;;;;;5.72;76.65;101843.19;5071737;28;20123;-77
2020/12/20 03:27:06;;;;;;;58.95;33.28;;;;;;;5.69;76.80;101841.28;5072253;28;20116;-77
2020/12/20 03:29:31;;;;;;;52.55;29.67;;;;;;;5.73;76.86;101839.88;5028824;28;20076;-76
2020/12/20 03:31:57;;;;;;;55.58;30.73;;;;;;;5.51;76.52;101804.88;5029516;28;20041;-75
2020/12/20 03:34:22;;;;;;;64.43;32.58;;;;;;;5.64;77.07;101842.59;5029444;28;20045;-71
2020/12/20 03:36:48;;;;;;;56.33;29.25;;;;;;;5.61;76.44;101844.94;5029464;28;20060;-77
2020/12/20 03:39:13;;;;;;;55.42;30.83;;;;;;;5.77;76.25;101845.34;5029349;28;20049;-76
2020/12/20 03:41:39;;;;;;;58.92;29.83;;;;;;;5.83;76.15;101842.38;5012142;28;20116;-78
2020/12/20 03:44:04;;;;;;;61.47;31.85;;;;;;;5.78;75.57;101844.59;5029146;28;20034;-79
2020/12/20 03:46:30;;;;;;;60.95;30.40;;;;;;;5.76;75.51;101842.69;5029405;28;20033;-76
2020/12/20 03:48:55;;;;;;;59.05;31.23;;;;;;;5.86;75.29;101851.97;5029244;28;20049;-77
2020/12/20 03:51:20;;;;;;;57.45;29.77;;;;;;;5.93;74.85;101854.22;5029149;28;20037;-76
2020/12/20 03:53:46;;;;;;;56.95;30.45;;;;;;;5.95;74.66;101853.56;5029148;28;20089;-79
2020/12/20 03:56:11;;;;;;;54.83;30.38;;;;;;;5.91;74.75;101848.13;5028643;28;20420;-76
2020/12/20 03:58:37;;;;;;;61.15;32.10;;;;;;;5.92;75.16;101858.47;5029222;28;20554;-78
2020/12/20 04:01:03;;;;;;;57.58;30.85;;;;;;;5.72;75.20;101822.69;5048645;28;20509;-78
2020/12/20 04:03:28;;;;;;;60.30;31.67;;;;;;;5.73;75.65;101827.06;5071505;28;20482;-77
2020/12/20 04:05:53;;;;;;;58.97;32.47;;;;;;;5.93;75.67;101864.50;5061677;28;20494;-76
2020/12/20 04:08:19;;;;;;;59.83;31.38;;;;;;;5.74;75.44;101826.28;5054020;28;20481;-74
2020/12/20 04:10:44;;;;;;;63.53;32.13;;;;;;;5.85;75.56;101860.44;5069341;28;20012;-76
2020/12/20 04:13:10;;;;;;;65.68;31.92;;;;;;;5.71;76.30;101857.69;5067864;28;20028;-77
2020/12/20 04:15:35;;;;;;;59.53;30.63;;;;;;;5.41;76.85;101820.28;5058972;28;20035;-74
2020/12/20 04:18:01;;;;;;;58.78;31.30;;;;;;;5.73;76.89;101866.41;5071119;28;20024;-76
2020/12/20 04:20:26;;;;;;;56.25;30.52;;;;;;;5.78;76.13;101865.09;5052509;28;20032;-79
2020/12/20 04:22:51;;;;;;;57.45;29.58;;;;;;;5.78;76.24;101849.72;5070669;28;20029;-76
2020/12/20 04:25:17;;;;;;;58.42;28.73;;;;;;;5.90;76.63;101860.03;5052240;28;20036;-73
2020/12/20 04:27:42;;;;;;;57.78;30.38;;;;;;;5.78;76.13;101833.44;5071149;28;20025;-79
2020/12/20 04:30:08;;;;;;;66.60;31.33;;;;;;;6.02;76.00;101877.16;5070822;28;20392;-74
2020/12/20 04:32:34;;;;;;;64.60;33.05;;;;;;;5.84;75.96;101849.28;5071322;28;20097;-76
2020/12/20 04:34:59;;;;;;;61.13;30.92;;;;;;;5.82;76.44;101873.91;5070994;28;20547;-74
2020/12/20 04:37:25;;;;;;;58.25;30.90;;;;;;;5.66;76.63;101836.81;5052763;28;20606;-75
2020/12/20 04:39:50;;;;;;;57.13;30.15;;;;;;;5.98;76.76;101871.81;5052762;28;20485;-79
2020/12/20 04:42:15;;;;;;;58.05;30.25;;;;;;;5.97;76.64;101877.66;5052606;28;20031;-77
2020/12/20 04:44:42;;;;;;;58.78;31.58;;;;;;;5.79;76.86;101869.41;5070810;28;20043;-79
2020/12/20 04:47:09;;;;;;;58.28;30.77;;;;;;;5.67;76.24;101863.34;5052599;28;20395;-76
2020/12/20 04:49:35;;;;;;;57.35;30.05;;;;;;;5.71;75.98;101874.72;5070921;28;20111;-74
2020/12/20 04:52:01;;;;;;;63.58;30.77;;;;;;;5.80;76.03;101888.28;5071244;28;20043;-74
2020/12/20 04:54:26;;;;;;;68.97;32.75;;;;;;;5.75;76.36;101871.63;5052120;28;20466;-79
2020/12/20 04:56:52;;;;;;;61.20;31.17;;;;;;;5.73;76.09;101880.88;5070734;28;20032;-77
2020/12/20 04:59:18;;;;;;;63.47;29.67;;;;;;;5.57;76.28;101856.59;5052257;28;20432;-73
2020/12/20 05:01:43;;;;;;;62.80;31.05;;;;;;;5.77;76.09;101888.94;5070676;28;20111;-74
2020/12/20 05:04:10;;;;;;;64.00;30.90;;;;;;;5.65;76.39;101870.00;5049520;28;20399;-74
2020/12/20 05:06:36;;;;;;;74.50;34.22;;;;;;;5.79;76.16;101896.72;5070655;28;20042;-73
2020/12/20 05:09:07;;;;;;;63.00;32.38;;;;;;;5.82;76.20;101894.44;5070650;28;20466;-74
2020/12/20 05:11:38;;;;;;;60.00;32.30;;;;;;;5.85;75.96;101902.34;5062613;28;20020;-78
2020/12/20 05:14:07;;;;;;;60.47;31.88;;;;;;;5.61;76.30;101868.88;5052706;28;20029;-76
2020/12/20 05:16:36;;;;;;;;;;;;;;;5.86;76.06;101909.25;5070961;28;20029;-73
2020/12/20 05:19:03;;;;;;;63.60;34.13;;;;;;;5.89;76.57;101912.06;5070526;28;19908;-75
2020/12/20 05:21:30;;;;;;;62.28;32.97;;;;;;;5.91;75.85;101917.31;5070174;28;20035;-76
2020/12/20 05:23:56;;;;;;;66.00;32.42;;;;;;;5.87;75.48;101910.16;5070430;28;20103;-74
2020/12/20 05:26:31;;;;;;;61.20;32.97;;;;;;;5.90;75.51;101910.41;5070378;28;20082;-75
2020/12/20 05:29:11;;;;;;;60.17;33.03;;;;;;;6.01;75.29;101916.38;5070409;28;20032;-74
2020/12/20 05:31:37;;;;;;;;;;;;;;;6.03;75.47;101915.75;5071017;28;20467;-78
2020/12/20 05:34:03;;;;;;;58.10;30.90;;;;;;;6.04;75.45;101914.97;5052072;28;19919;-76
2020/12/20 05:36:29;;;;;;;61.40;32.22;;;;;;;6.09;75.46;101921.38;5072230;28;20486;-80
2020/12/20 05:39:11;;;;;;;57.40;29.90;;;;;;;6.15;75.37;101919.25;5052599;28;20079;-74
2020/12/20 05:41:37;;;;;;;56.33;29.08;;;;;;;6.16;74.65;101912.47;5054323;28;20055;-78
2020/12/20 05:44:17;;;;;;;57.13;28.92;;;;;;;6.19;74.62;101911.81;5052373;28;20053;-76
2020/12/20 05:46:43;;;;;;;;;;;;;;;6.23;74.21;101917.31;5072751;28;20025;-74
2020/12/20 05:49:16;;;;;;;53.38;27.15;;;;;;;6.19;74.06;101916.94;5074021;28;20003;-77
2020/12/20 05:52:03;;;;;;;54.83;30.55;;;;;;;6.25;74.07;101920.00;5073722;28;20059;-80
2020/12/20 05:54:33;;;;;;;46.47;26.38;;;;;;;6.22;73.85;101924.88;5007230;28;20041;-77
2020/12/20 05:57:20;;;;;;;45.97;25.23;;;;;;;6.17;73.67;101918.50;4985293;28;20062;-76
2020/12/20 05:59:47;;;;;;;55.17;30.20;;;;;;;6.12;73.69;101926.72;5006892;28;20038;-78
2020/12/20 06:02:13;;;;;;;49.42;25.75;;;;;;;6.04;73.91;101920.09;4991467;28;20038;-77
2020/12/20 06:04:40;;;;;;;48.63;24.77;;;;;;;6.04;74.45;101924.34;4991664;28;20485;-76
2020/12/20 06:07:10;;;;;;;50.90;27.23;;;;;;;6.05;74.42;101929.56;4975547;28;20034;-74
2020/12/20 06:09:59;;;;;;;46.05;24.52;;;;;;;5.93;74.75;101934.59;4991746;28;20070;-76
2020/12/20 06:12:27;;;;;;;47.60;31.25;;;;;;;5.69;75.78;101930.97;4972553;28;20097;-77
2020/12/20 06:14:54;;;;;;;43.55;25.40;;;;;;;5.61;76.10;101925.25;4952489;29;20156;-77
2020/12/20 06:17:24;;;;;;;44.53;24.48;;;;;;;5.66;76.06;101913.69;4953063;29;20047;-77
2020/12/20 06:19:55;;;;;;;42.08;23.17;;;;;;;5.72;76.07;101912.38;4952471;28;20071;-74
2020/12/20 06:22:21;;;;;;;48.53;24.90;;;;;;;5.80;75.96;101922.47;4952909;29;20059;-76
2020/12/20 06:24:48;;;;;;;44.33;26.48;;;;;;;5.79;75.92;101919.78;4952609;29;20078;-77
2020/12/20 06:27:16;;;;;;;41.47;24.33;;;;;;;5.77;76.14;101924.81;4952869;29;20498;-76
2020/12/20 06:29:48;;;;;;;46.22;28.40;;;;;;;5.74;76.15;101915.97;4952763;29;20043;-76
2020/12/20 06:32:19;;;;;;;48.88;28.00;;;;;;;5.91;75.04;101925.91;4957170;28;20042;-76
2020/12/20 06:34:45;;;;;;;60.75;35.03;;;;;;;5.91;75.49;101927.56;4991584;28;20613;-76
2020/12/20 06:37:12;;;;;;;55.80;31.00;;;;;;;5.66;75.39;101921.38;4978660;28;20066;-75
2020/12/20 06:39:39;;;;;;;49.65;27.90;;;;;;;5.37;77.05;101929.28;4985744;28;20034;-75
2020/12/20 06:42:05;;;;;;;66.90;35.47;;;;;;;5.30;77.78;101934.66;4983652;28;20042;-76
2020/12/20 06:44:30;;;;;;;48.38;27.60;;;;;;;5.13;78.28;101926.47;4932865;29;20560;-74
2020/12/20 06:46:57;;;;;;;43.10;23.35;;;;;;;5.15;77.83;101918.94;4947569;29;20074;-74
2020/12/20 06:49:40;;;;;;;45.47;24.13;;;;;;;5.02;78.14;101930.72;4952927;28;20401;-76
2020/12/20 06:52:28;;;;;;;38.92;22.40;;;;;;;4.68;77.90;101880.97;5000719;28;20042;-73
2020/12/20 06:54:59;;;;;;;32.90;19.13;;;;;;;4.99;77.39;101943.25;5005236;28;20061;-79
2020/12/20 06:57:25;;;;;;;36.45;22.45;;;;;;;5.07;77.23;101940.44;5001501;28;20037;-75
2020/12/20 06:59:50;;;;;;;42.75;21.70;;;;;;;5.09;77.57;101947.47;5030145;28;20561;-78
2020/12/20 07:02:45;;;;;;;37.45;20.35;;;;;;;5.05;77.58;101949.66;5029967;28;20589;-76
2020/12/20 07:05:41;;;;;;;38.45;21.02;;;;;;;4.98;77.96;101920.97;5030127;28;20120;-77
2020/12/20 07:08:27;;;;;;;35.80;19.73;;;;;;;5.11;77.29;101953.63;4969409;28;20133;-77
2020/12/20 07:10:58;;;;;;;29.85;17.77;;;;;;;4.99;77.40;101933.03;4971139;28;20038;-78
2020/12/20 07:13:33;;;;;;;31.95;16.65;;;;;;;4.89;77.43;101945.81;4971151;28;20046;-76
2020/12/20 07:16:16;;;;;;;32.17;17.13;;;;;;;4.70;78.93;101951.06;4971107;28;20049;-73
2020/12/20 07:18:43;;;;;;;30.60;17.63;;;;;;;4.91;78.07;101954.53;4971469;28;20509;-74
2020/12/20 07:21:10;;;;;;;29.77;17.60;;;;;;;4.89;77.32;101953.50;4974167;28;20081;-73
2020/12/20 07:23:41;;;;;;;31.38;17.10;;;;;;;4.96;78.21;101968.63;4973929;28;20033;-77
2020/12/20 07:26:06;;;;;;;27.40;15.98;;;;;;;5.02;76.85;101969.13;4974168;28;20566;-76
2020/12/20 07:28:32;;;;;;;33.03;20.88;;;;;;;4.81;77.71;101952.88;4989964;28;20154;-75
2020/12/20 07:30:58;;;;;;;31.17;18.23;;;;;;;4.90;77.10;101947.63;4990475;28;20026;-76
2020/12/20 07:33:23;;;;;;;33.65;18.98;;;;;;;4.95;77.37;101961.69;4973778;28;20030;-74
2020/12/20 07:35:49;;;;;;;32.10;19.58;;;;;;;5.07;77.50;101973.72;4990280;28;20561;-77
2020/12/20 07:38:15;;;;;;;33.05;18.95;;;;;;;5.17;76.24;101972.06;4989595;28;20078;-76
2020/12/20 07:40:40;;;;;;;33.97;21.92;;;;;;;5.12;76.77;101969.88;4990116;28;20038;-74
2020/12/20 07:43:06;;;;;;;40.30;23.33;;;;;;;5.18;76.24;101978.06;4989910;28;20408;-74
2020/12/20 07:45:33;;;;;;;40.05;22.02;;;;;;;5.26;76.17;101969.38;5032864;28;20863;-74
2020/12/20 07:47:58;;;;;;;31.10;21.65;;;;;;;5.23;77.09;101976.78;5052021;28;20120;-77
2020/12/20 07:50:25;;;;;;;39.00;23.23;;;;;;;5.09;76.08;101975.63;5051528;28;20111;-77
2020/12/20 07:52:50;;;;;;;35.95;19.55;;;;;;;5.19;76.41;101979.88;5051495;28;20051;-73
2020/12/20 07:55:16;;;;;;;32.33;19.88;;;;;;;5.04;76.35;101976.91;5033588;28;20029;-74
2020/12/20 07:57:45;;;;;;;43.63;24.23;;;;;;;5.13;76.91;101976.78;5051590;28;20025;-79
2020/12/20 08:00:12;;;;;;;37.13;20.33;;;;;;;5.11;75.96;101957.84;5051530;28;20025;-75
2020/12/20 08:02:38;;;;;;;36.47;20.17;;;;;;;5.35;76.29;101972.66;5049193;28;20036;-74
2020/12/20 08:05:08;;;;;;;31.05;18.48;;;;;;;5.46;75.90;101982.91;5009194;28;20085;-77
2020/12/20 08:07:34;;;;;;;31.42;19.02;;;;;;;5.54;75.58;101980.97;5009214;28;20052;-77
2020/12/20 08:10:00;;;;;;;31.08;18.38;;;;;;;5.67;74.40;101979.53;5009040;28;20064;-76
2020/12/20 08:12:26;;;;;;;28.38;16.83;;;;;;;5.63;74.39;101991.97;5008963;28;20500;-77
2020/12/20 08:15:08;;;;;;;36.30;19.88;;;;;;;5.72;73.61;101977.34;5009275;28;20482;-76
2020/12/20 08:17:36;;;;;;;34.08;18.42;;;;;;;5.60;73.36;101971.22;4992500;28;20121;-76
2020/12/20 08:20:06;;;;;;;32.92;20.15;;;;;;;5.54;73.35;101976.75;4992479;28;20026;-76
2020/12/20 08:22:33;;;;;;;38.00;21.55;;;;;;;5.59;73.72;101966.88;5009008;28;20594;-76
2020/12/20 08:25:09;;;;;;;37.15;22.02;;;;;;;5.69;74.04;101971.97;5008737;28;20412;-74
2020/12/20 08:27:37;;;;;;;38.30;22.42;;;;;;;5.78;74.05;101970.16;4989391;28;20026;-74
2020/12/20 08:30:07;;;;;;;34.75;19.17;;;;;;;5.86;72.96;101974.97;5006449;28;20128;-76
2020/12/20 08:32:35;;;;;;;59.25;34.13;;;;;;;5.98;72.34;101963.16;5008971;28;20037;-77
2020/12/20 08:35:14;;;;;;;56.15;31.98;;;;;;;6.15;72.42;101965.41;5008806;28;20549;-77
2020/12/20 08:37:40;;;;;;;49.22;27.10;;;;;;;6.23;71.70;101966.03;5013774;28;20104;-78
2020/12/20 08:40:14;;;;;;;35.63;20.50;;;;;;;6.19;71.20;101960.53;5011732;28;20124;-77
2020/12/20 08:42:40;;;;;;;35.63;20.65;;;;;;;5.84;72.49;101969.75;5049705;28;20116;-76
2020/12/20 08:45:15;;;;;;;35.10;20.48;;;;;;;5.76;71.34;101917.00;5049850;28;20102;-80
2020/12/20 08:47:43;;;;;;;34.50;20.52;;;;;;;6.09;71.32;101962.41;5049477;28;20025;-75
2020/12/20 08:50:09;;;;;;;34.15;21.20;;;;;;;6.11;71.87;101959.94;5046981;28;20037;-77
2020/12/20 08:52:34;;;;;;;39.38;22.63;;;;;;;6.16;71.47;101956.06;5071002;28;20028;-77
2020/12/20 08:55:02;;;;;;;38.22;23.60;;;;;;;6.07;71.99;101956.25;5070782;28;20094;-77
2020/12/20 08:57:29;;;;;;;37.13;21.75;;;;;;;5.89;72.68;101965.00;5049588;28;20033;-76
2020/12/20 09:00:17;;;;;;;38.45;21.17;;;;;;;5.87;72.53;101957.19;5043675;28;20030;-75
2020/12/20 09:02:42;;;;;;;40.60;22.80;;;;;;;5.81;73.53;101949.00;5070554;28;20116;-77
2020/12/20 09:05:13;;;;;;;39.53;21.58;;;;;;;5.52;73.24;101893.78;5049436;28;20116;-78
2020/12/20 09:07:40;;;;;;;37.20;24.77;;;;;;;5.73;73.45;101952.63;5066448;28;20490;-76
2020/12/20 09:10:20;;;;;;;40.30;26.77;;;;;;;5.81;73.62;101951.56;5074575;28;20021;-75
2020/12/20 09:12:48;;;;;;;;;;;;;;;5.75;73.14;101951.09;5053990;28;20108;-76
2020/12/20 09:15:14;;;;;;;42.50;22.63;;;;;;;5.61;73.55;101943.16;5053386;28;19916;-77
2020/12/20 09:17:43;;;;;;;37.50;21.17;;;;;;;5.58;74.26;101945.50;5067677;28;20036;-77
2020/12/20 09:20:11;;;;;;;37.50;21.30;;;;;;;5.52;73.79;101947.56;5053216;28;20052;-77
2020/12/20 09:22:46;;;;;;;34.10;19.92;;;;;;;5.63;74.31;101949.31;5048226;28;20032;-77
2020/12/20 09:25:16;;;;;;;33.55;19.13;;;;;;;5.75;72.74;101945.94;5052872;28;20058;-74
2020/12/20 09:27:58;;;;;;;37.90;21.00;;;;;;;5.67;73.41;101914.59;5065949;28;20082;-75
2020/12/20 09:31:09;;;;;;;36.42;21.33;;;;;;;5.95;73.45;101945.84;5056351;28;20078;-77
2020/12/20 09:33:38;;;;;;;37.83;22.35;;;;;;;6.01;73.02;101949.72;5011840;28;20046;-76
2020/12/20 09:36:03;;;;;;;37.03;20.95;;;;;;;6.02;73.04;101946.38;4995341;28;20125;-75
2020/12/20 09:38:36;;;;;;;34.38;20.75;;;;;;;6.00;72.45;101943.69;5012011;28;20129;-76
2020/12/20 09:41:05;;;;;;;40.05;24.58;;;;;;;5.99;72.81;101942.81;5001305;28;20088;-75
2020/12/20 09:43:31;;;;;;;46.90;29.75;;;;;;;6.03;73.48;101933.72;5011692;28;20204;-76
2020/12/20 09:45:58;;;;;;;43.42;24.13;;;;;;;5.92;73.26;101934.47;5012033;28;20496;-77
2020/12/20 09:48:24;;;;;;;35.65;22.00;;;;;;;5.90;72.79;101936.91;5005549;28;20034;-76
2020/12/20 09:50:49;;;;;;;40.45;24.92;;;;;;;5.80;73.33;101909.66;4995198;28;20045;-77
2020/12/20 09:53:35;;;;;;;43.22;24.73;;;;;;;5.70;72.70;101902.00;4972559;28;20233;-76
2020/12/20 09:56:01;;;;;;;39.75;23.27;;;;;;;5.89;74.23;101932.56;4953405;28;20525;-77
2020/12/20 09:58:28;;;;;;;37.60;22.10;;;;;;;5.96;73.15;101934.84;4965140;28;20069;-74
2020/12/20 10:00:53;;;;;;;199.95;100.85;;;;;;;5.85;73.05;101924.53;4972147;28;20023;-74
2020/12/20 10:03:19;;;;;;;48.67;29.33;;;;;;;5.91;73.50;101930.13;4972515;28;20046;-77
2020/12/20 10:05:45;;;;;;;42.58;25.30;;;;;;;5.91;73.30;101928.47;4972601;28;20116;-74
2020/12/20 10:08:13;;;;;;;44.25;30.60;;;;;;;5.73;73.07;101898.81;4975890;28;20057;-74
2020/12/20 10:10:38;;;;;;;41.58;25.80;;;;;;;5.91;73.26;101928.47;5011510;28;20057;-76
2020/12/20 10:13:04;;;;;;;45.00;26.75;;;;;;;5.87;73.21;101912.69;4994715;28;20114;-73
2020/12/20 10:15:29;;;;;;;41.85;25.13;;;;;;;5.80;74.37;101919.03;5011045;28;20041;-78
2020/12/20 10:17:56;;;;;;;43.95;22.90;;;;;;;5.90;73.04;101921.53;5010970;28;20049;-75
2020/12/20 10:20:21;;;;;;;39.90;23.08;;;;;;;5.88;72.98;101912.84;4991970;28;20435;-76
2020/12/20 10:22:48;;;;;;;40.72;23.90;;;;;;;5.95;72.99;101919.34;5008179;28;20041;-75
2020/12/20 10:25:13;;;;;;;39.22;23.13;;;;;;;5.89;73.37;101919.75;5023041;28;20057;-76
2020/12/20 10:27:39;;;;;;;39.63;22.48;;;;;;;5.85;72.93;101904.03;5026221;28;20384;-76
2020/12/20 10:30:05;;;;;;;35.53;21.75;;;;;;;5.81;72.97;101908.88;5035182;28;20056;-76
2020/12/20 10:32:30;;;;;;;46.45;24.65;;;;;;;5.87;73.63;101900.81;5035436;28;20060;-77
2020/12/20 10:34:56;;;;;;;41.83;24.83;;;;;;;5.88;73.55;101902.59;5042635;28;20041;-77
2020/12/20 10:37:21;;;;;;;41.58;23.60;;;;;;;5.94;73.15;101897.03;5052776;28;20053;-76
2020/12/20 10:39:47;;;;;;;40.85;23.80;;;;;;;6.04;73.32;101901.25;5068595;28;20077;-76
2020/12/20 10:42:14;;;;;;;41.10;23.25;;;;;;;6.07;72.82;101897.28;5071329;28;20029;-77
2020/12/20 10:44:40;;;;;;;42.45;25.48;;;;;;;6.18;72.41;101892.06;5073011;28;20041;-76
2020/12/20 10:47:05;;;;;;;38.08;23.40;;;;;;;6.18;72.24;101897.19;5052063;28;20387;-74
2020/12/20 10:49:31;;;;;;;37.10;22.55;;;;;;;6.21;70.97;101888.09;5073242;28;20017;-76
2020/12/20 10:51:56;;;;;;;39.83;24.10;;;;;;;6.35;71.19;101889.13;5055416;28;20043;-75
2020/12/20 10:54:23;;;;;;;41.80;24.77;;;;;;;6.40;72.22;101886.94;5073298;28;20497;-80
2020/12/20 10:56:49;;;;;;;41.55;24.92;;;;;;;6.42;71.89;101887.97;5073465;28;20028;-75
2020/12/20 10:59:16;;;;;;;47.20;26.23;;;;;;;6.30;70.92;101859.69;5055143;28;20029;-76
2020/12/20 11:01:42;;;;;;;39.05;24.30;;;;;;;6.47;70.42;101887.53;5072903;28;20028;-78
2020/12/20 11:04:08;;;;;;;41.80;25.58;;;;;;;6.42;70.09;101882.81;5072965;28;20062;-81
2020/12/20 11:06:34;;;;;;;43.38;26.58;;;;;;;6.42;70.38;101877.69;5055164;28;20021;-81
2020/12/20 11:08:59;;;;;;;42.30;24.35;;;;;;;6.41;70.35;101881.03;5072668;28;20468;-78
2020/12/20 11:11:32;;;;;;;40.03;22.70;;;;;;;6.45;70.77;101883.03;5071848;28;20039;-81
2020/12/20 11:13:58;;;;;;;32.38;20.13;;;;;;;6.46;70.51;101882.28;5069051;28;20418;-77
2020/12/20 11:16:24;;;;;;;36.05;21.45;;;;;;;6.46;70.38;101877.16;5064765;28;20033;-78
2020/12/20 11:18:50;;;;;;;37.40;22.60;;;;;;;6.44;70.62;101869.34;5054284;28;20035;-77
2020/12/20 11:21:17;;;;;;;38.67;22.58;;;;;;;6.47;71.26;101879.81;5072335;28;20071;-78
2020/12/20 11:23:46;;;;;;;35.97;22.52;;;;;;;6.41;70.97;101874.22;5072353;28;20086;-75